createdAt,value
2017-12-12T00:00:57.795Z,97133
2017-12-12T00:01:56.843Z,97137
2017-12-12T00:02:56.885Z,97130
2017-12-12T00:03:56.811Z,97145
2017-12-12T00:04:57.927Z,97149
2017-12-12T00:05:56.871Z,97149
2017-12-12T00:06:57.050Z,97154
2017-12-12T00:07:57.992Z,97159
2017-12-12T00:08:58.192Z,97154
2017-12-12T00:09:57.241Z,97156
2017-12-12T00:10:58.202Z,97165
2017-12-12T00:11:58.281Z,97165
2017-12-12T00:12:57.478Z,97173
2017-12-12T00:13:58.350Z,97177
2017-12-12T00:14:58.541Z,97184
2017-12-12T00:15:57.508Z,97191
2017-12-12T00:16:57.599Z,97199
2017-12-12T00:17:57.782Z,97206
2017-12-12T00:18:57.865Z,97211
2017-12-12T00:19:58.914Z,97215
2017-12-12T00:20:58.824Z,97218
2017-12-12T00:21:59.050Z,97214
2017-12-12T00:22:59.002Z,97219
2017-12-12T00:23:58.086Z,97231
2017-12-12T00:24:59.117Z,97244
2017-12-12T00:25:59.157Z,97253
2017-12-12T00:26:59.224Z,97261
2017-12-12T00:27:58.423Z,97254
2017-12-12T00:28:59.365Z,97265
2017-12-12T00:29:59.547Z,97272
2017-12-12T00:30:59.589Z,97274
2017-12-12T00:31:58.683Z,97278
2017-12-12T00:32:59.755Z,97271
2017-12-12T00:33:59.779Z,97282
2017-12-12T00:34:59.804Z,97296
2017-12-12T00:35:58.768Z,97303
2017-12-12T00:36:59.885Z,97305
2017-12-12T00:37:59.960Z,97300
2017-12-12T00:38:59.051Z,97313
2017-12-12T00:39:59.013Z,97317
2017-12-12T00:40:59.015Z,97320
2017-12-12T00:41:59.111Z,97327
2017-12-12T00:43:00.181Z,97333
2017-12-12T00:44:00.146Z,97341
2017-12-12T00:44:59.251Z,97343
2017-12-12T00:45:59.403Z,97349
2017-12-12T00:47:00.320Z,97345
2017-12-12T00:47:59.511Z,97357
2017-12-12T00:49:00.468Z,97356
2017-12-12T00:50:00.546Z,97367
2017-12-12T00:51:00.766Z,97372
2017-12-12T00:52:00.703Z,97380
2017-12-12T00:53:00.743Z,97379
2017-12-12T00:54:00.906Z,97383
2017-12-12T00:54:59.937Z,97393
2017-12-12T00:55:59.915Z,97394
2017-12-12T00:57:00.909Z,97400
2017-12-12T00:58:00.098Z,97406
2017-12-12T00:59:01.180Z,97406
2017-12-12T01:00:00.175Z,97408
2017-12-12T01:01:00.324Z,97415
2017-12-12T01:02:01.230Z,97412
2017-12-12T01:03:00.273Z,97407
2017-12-12T01:04:01.435Z,97413
2017-12-12T01:05:01.510Z,97422
2017-12-12T01:06:01.533Z,97423
2017-12-12T01:07:01.419Z,97421
2017-12-12T01:08:00.611Z,97441
2017-12-12T01:09:01.566Z,97439
2017-12-12T01:10:01.629Z,97451
2017-12-12T01:11:01.761Z,97450
2017-12-12T01:12:00.943Z,97457
2017-12-12T01:13:01.897Z,97460
2017-12-12T01:14:01.010Z,97462
2017-12-12T01:15:01.997Z,97457
2017-12-12T01:16:01.221Z,97468
2017-12-12T01:17:02.153Z,97475
2017-12-12T01:18:01.198Z,97478
2017-12-12T01:19:02.187Z,97482
2017-12-12T01:20:01.308Z,97481
2017-12-12T01:21:02.404Z,97491
2017-12-12T01:22:02.476Z,97492
2017-12-12T01:23:01.473Z,97497
2017-12-12T01:24:02.494Z,97509
2017-12-12T01:25:02.686Z,97513
2017-12-12T01:26:02.624Z,97517
2017-12-12T01:27:02.648Z,97517
2017-12-12T01:28:01.860Z,97518
2017-12-12T01:29:01.852Z,97530
2017-12-12T01:30:02.897Z,97533
2017-12-12T01:31:02.085Z,97539
2017-12-12T01:32:03.144Z,97540
2017-12-12T01:33:02.998Z,97546
2017-12-12T01:34:03.095Z,97546
2017-12-12T01:35:03.123Z,97541
2017-12-12T01:36:02.328Z,97551
2017-12-12T01:37:02.373Z,97553
2017-12-12T01:38:03.447Z,97558
2017-12-12T01:39:02.480Z,97555
2017-12-12T01:40:02.537Z,97568
2017-12-12T01:41:02.459Z,97569
2017-12-12T01:42:02.504Z,97580
2017-12-12T01:43:02.593Z,97569
2017-12-12T01:44:02.665Z,97572
2017-12-12T01:45:02.782Z,97583
2017-12-12T01:46:02.946Z,97586
2017-12-12T01:47:02.850Z,97591
2017-12-12T01:48:03.936Z,97584
2017-12-12T01:49:03.849Z,97596
2017-12-12T01:50:03.002Z,97601
2017-12-12T01:51:02.946Z,97601
2017-12-12T01:52:03.124Z,97606
2017-12-12T01:53:04.174Z,97619
2017-12-12T01:54:04.074Z,97618
2017-12-12T01:55:04.255Z,97622
2017-12-12T01:56:03.329Z,97625
2017-12-12T01:57:03.295Z,97627
2017-12-12T01:58:04.464Z,97635
2017-12-12T01:59:04.423Z,97639
2017-12-12T02:00:03.636Z,97641
2017-12-12T02:01:04.605Z,97645
2017-12-12T02:02:03.623Z,97649
2017-12-12T02:03:03.576Z,97650
2017-12-12T02:04:03.754Z,97658
2017-12-12T02:05:04.716Z,97664
2017-12-12T02:06:04.911Z,97672
2017-12-12T02:07:04.813Z,97673
2017-12-12T02:08:03.977Z,97679
2017-12-12T02:09:05.034Z,97686
2017-12-12T02:10:05.972Z,97681
2017-12-12T02:11:04.147Z,97693
2017-12-12T02:12:04.066Z,97696
2017-12-12T02:13:05.180Z,97706
2017-12-12T02:14:05.039Z,97716
2017-12-12T02:15:04.264Z,97707
2017-12-12T02:16:05.290Z,97719
2017-12-12T02:17:05.205Z,97720
2017-12-12T02:18:04.322Z,97731
2017-12-12T02:19:04.316Z,97734
2017-12-12T02:20:05.419Z,97737
2017-12-12T02:21:05.492Z,97734
2017-12-12T02:22:04.469Z,97735
2017-12-12T02:23:04.521Z,97750
2017-12-12T02:24:04.652Z,97755
2017-12-12T02:25:04.630Z,97759
2017-12-12T02:26:05.622Z,97767
2017-12-12T02:27:05.677Z,97770
2017-12-12T02:28:05.722Z,97771
2017-12-12T02:29:05.889Z,97772
2017-12-12T02:30:04.783Z,97780
2017-12-12T02:31:05.884Z,97784
2017-12-12T02:32:04.918Z,97785
2017-12-12T02:33:05.966Z,97787
2017-12-12T02:34:06.080Z,97788
2017-12-12T02:35:06.028Z,97798
2017-12-12T02:36:05.243Z,97788
2017-12-12T02:37:06.265Z,97799
2017-12-12T02:38:06.212Z,97802
2017-12-12T02:39:05.412Z,97808
2017-12-12T02:40:06.335Z,97813
2017-12-12T02:41:05.506Z,97822
2017-12-12T02:42:05.564Z,97821
2017-12-12T02:43:05.579Z,97828
2017-12-12T02:44:05.656Z,97835
2017-12-12T02:45:05.593Z,97836
2017-12-12T02:46:06.567Z,97836
2017-12-12T02:47:06.779Z,97846
2017-12-12T02:48:05.727Z,97851
2017-12-12T02:49:05.799Z,97859
2017-12-12T02:50:06.006Z,97862
2017-12-12T02:51:06.083Z,97862
2017-12-12T02:52:06.146Z,97873
2017-12-12T02:53:07.160Z,97865
2017-12-12T02:54:07.184Z,97876
2017-12-12T02:55:06.232Z,97882
2017-12-12T02:56:07.231Z,97890
2017-12-12T02:57:07.298Z,97882
2017-12-12T02:58:06.245Z,97895
2017-12-12T02:59:06.299Z,97894
2017-12-12T03:00:07.446Z,97898
2017-12-12T03:01:07.396Z,97903
2017-12-12T03:02:06.634Z,97899
2017-12-12T03:03:07.548Z,97909
2017-12-12T03:04:07.604Z,97911
2017-12-12T03:05:07.674Z,97919
2017-12-12T03:06:06.888Z,97929
2017-12-12T03:07:06.954Z,97937
2017-12-12T03:08:07.045Z,97937
2017-12-12T03:09:07.892Z,97940
2017-12-12T03:10:07.016Z,97949
2017-12-12T03:11:08.050Z,97943
2017-12-12T03:12:08.097Z,97939
2017-12-12T03:13:07.209Z,97941
2017-12-12T03:14:08.276Z,97949
2017-12-12T03:15:08.295Z,97964
2017-12-12T03:16:08.493Z,97964
2017-12-12T03:17:07.580Z,97966
2017-12-12T03:18:08.495Z,97957
2017-12-12T03:19:07.705Z,97975
2017-12-12T03:20:08.608Z,97976
2017-12-12T03:21:08.604Z,97980
2017-12-12T03:22:07.820Z,97985
2017-12-12T03:23:07.902Z,97993
2017-12-12T03:24:07.885Z,97988
2017-12-12T03:25:08.043Z,97996
2017-12-12T03:26:08.131Z,97994
2017-12-12T03:27:09.098Z,97999
2017-12-12T03:28:09.140Z,97997
2017-12-12T03:29:09.055Z,98003
2017-12-12T03:30:08.292Z,98012
2017-12-12T03:31:08.235Z,98022
2017-12-12T03:32:09.351Z,98028
2017-12-12T03:33:08.299Z,98025
2017-12-12T03:34:09.275Z,98034
2017-12-12T03:35:09.430Z,98038
2017-12-12T03:36:09.427Z,98047
2017-12-12T03:37:08.428Z,98041
2017-12-12T03:38:08.534Z,98051
2017-12-12T03:39:08.678Z,98058
2017-12-12T03:40:08.732Z,98067
2017-12-12T03:41:08.671Z,98064
2017-12-12T03:42:09.832Z,98073
2017-12-12T03:43:09.889Z,98075
2017-12-12T03:44:09.943Z,98079
2017-12-12T03:45:09.981Z,98081
2017-12-12T03:46:09.932Z,98087
2017-12-12T03:47:09.975Z,98094
2017-12-12T03:48:09.176Z,98091
2017-12-12T03:49:10.154Z,98103
2017-12-12T03:50:09.237Z,98105
2017-12-12T03:51:10.257Z,98111
2017-12-12T03:52:09.301Z,98119
2017-12-12T03:53:09.280Z,98112
2017-12-12T03:54:09.269Z,98123
2017-12-12T03:55:10.330Z,98120
2017-12-12T03:56:10.352Z,98130
2017-12-12T03:57:09.447Z,98125
2017-12-12T03:58:10.605Z,98132
2017-12-12T03:59:10.664Z,98137
2017-12-12T04:00:10.721Z,98147
2017-12-12T04:01:10.172Z,98140
2017-12-12T04:02:10.714Z,98145
2017-12-12T04:03:09.823Z,98148
2017-12-12T04:04:10.821Z,98152
2017-12-12T04:05:10.715Z,98154
2017-12-12T04:06:09.921Z,98150
2017-12-12T04:07:10.011Z,98155
2017-12-12T04:08:11.049Z,98159
2017-12-12T04:09:10.169Z,98169
2017-12-12T04:10:11.021Z,98171
2017-12-12T04:11:11.234Z,98166
2017-12-12T04:12:10.218Z,98177
2017-12-12T04:13:11.374Z,98183
2017-12-12T04:14:11.261Z,98183
2017-12-12T04:15:11.310Z,98192
2017-12-12T04:16:11.360Z,98187
2017-12-12T04:17:10.551Z,98197
2017-12-12T04:18:10.547Z,98189
2017-12-12T04:19:11.508Z,98208
2017-12-12T04:20:11.703Z,98206
2017-12-12T04:21:10.752Z,98207
2017-12-12T04:22:10.654Z,98212
2017-12-12T04:23:10.663Z,98216
2017-12-12T04:24:11.647Z,98217
2017-12-12T04:25:10.736Z,98211
2017-12-12T04:26:11.889Z,98222
2017-12-12T04:27:10.868Z,98231
2017-12-12T04:28:10.874Z,98233
2017-12-12T04:29:12.045Z,98234
2017-12-12T04:30:11.954Z,98234
2017-12-12T04:31:11.070Z,98244
2017-12-12T04:32:12.236Z,98247
2017-12-12T04:33:12.312Z,98256
2017-12-12T04:34:11.386Z,98257
2017-12-12T04:35:12.479Z,98270
2017-12-12T04:36:11.443Z,98274
2017-12-12T04:37:11.491Z,98278
2017-12-12T04:38:11.581Z,98285
2017-12-12T04:39:12.694Z,98286
2017-12-12T04:40:12.569Z,98293
2017-12-12T04:41:11.776Z,98294
2017-12-12T04:42:11.760Z,98292
2017-12-12T04:43:12.900Z,98303
2017-12-12T04:44:11.839Z,98309
2017-12-12T04:45:12.034Z,98305
2017-12-12T04:46:11.944Z,98318
2017-12-12T04:47:12.094Z,98328
2017-12-12T04:48:13.112Z,98332
2017-12-12T04:49:13.034Z,98338
2017-12-12T04:50:13.213Z,98338
2017-12-12T04:51:12.303Z,98344
2017-12-12T04:52:13.350Z,98347
2017-12-12T04:53:13.403Z,98345
2017-12-12T04:54:12.350Z,98354
2017-12-12T04:55:12.533Z,98357
2017-12-12T04:56:12.495Z,98362
2017-12-12T04:57:13.532Z,98366
2017-12-12T04:58:12.669Z,98365
2017-12-12T04:59:13.700Z,98374
2017-12-12T05:00:13.778Z,98368
2017-12-12T05:01:13.975Z,98373
2017-12-12T05:02:13.059Z,98380
2017-12-12T05:03:12.999Z,98384
2017-12-12T05:04:14.126Z,98391
2017-12-12T05:05:13.228Z,98392
2017-12-12T05:06:13.201Z,98389
2017-12-12T05:07:14.184Z,98394
2017-12-12T05:08:14.325Z,98395
2017-12-12T05:09:14.281Z,98397
2017-12-12T05:10:14.458Z,98399
2017-12-12T05:11:14.396Z,98402
2017-12-12T05:12:13.462Z,98401
2017-12-12T05:13:14.636Z,98399
2017-12-12T05:14:13.555Z,98403
2017-12-12T05:15:14.714Z,98408
2017-12-12T05:16:14.681Z,98420
2017-12-12T05:17:13.767Z,98418
2017-12-12T05:18:14.796Z,98423
2017-12-12T05:19:14.856Z,98432
2017-12-12T05:20:14.952Z,98431
2017-12-12T05:21:14.938Z,98433
2017-12-12T05:22:15.120Z,98437
2017-12-12T05:23:15.195Z,98433
2017-12-12T05:24:15.234Z,98438
2017-12-12T05:25:14.265Z,98445
2017-12-12T05:26:14.232Z,98461
2017-12-12T05:27:15.211Z,98454
2017-12-12T05:28:15.280Z,98471
2017-12-12T05:29:14.380Z,98468
2017-12-12T05:30:14.421Z,98478
2017-12-12T05:31:15.523Z,98483
2017-12-12T05:32:14.484Z,98483
2017-12-12T05:33:15.591Z,98486
2017-12-12T05:34:14.628Z,98496
2017-12-12T05:35:15.669Z,98492
2017-12-12T05:36:14.705Z,98497
2017-12-12T05:37:14.791Z,98495
2017-12-12T05:38:15.674Z,98505
2017-12-12T05:39:14.834Z,98521
2017-12-12T05:40:14.798Z,98520
2017-12-12T05:41:15.745Z,98515
2017-12-12T05:42:14.892Z,98510
2017-12-12T05:43:14.879Z,98531
2017-12-12T05:44:15.057Z,98524
2017-12-12T05:45:16.765Z,98523
2017-12-12T05:46:14.989Z,98533
2017-12-12T05:47:15.430Z,98536
2017-12-12T05:48:15.148Z,98531
2017-12-12T05:49:15.146Z,98539
2017-12-12T05:50:15.959Z,98530
2017-12-12T05:51:16.189Z,98544
2017-12-12T05:52:15.340Z,98545
2017-12-12T05:53:16.373Z,98544
2017-12-12T05:54:15.361Z,98545
2017-12-12T05:55:16.454Z,98554
2017-12-12T05:56:16.497Z,98553
2017-12-12T05:57:16.535Z,98551
2017-12-12T05:58:16.448Z,98557
2017-12-12T05:59:15.520Z,98558
2017-12-12T06:00:15.685Z,98560
2017-12-12T06:01:15.798Z,98564
2017-12-12T06:02:16.757Z,98557
2017-12-12T06:03:16.724Z,98573
2017-12-12T06:04:16.754Z,98577
2017-12-12T06:05:16.776Z,98577
2017-12-12T06:06:15.915Z,98579
2017-12-12T06:07:15.927Z,98582
2017-12-12T06:08:16.028Z,98584
2017-12-12T06:09:15.993Z,98590
2017-12-12T06:10:16.048Z,98592
2017-12-12T06:11:16.105Z,98600
2017-12-12T06:12:17.125Z,98602
2017-12-12T06:13:17.162Z,98607
2017-12-12T06:14:17.351Z,98595
2017-12-12T06:15:17.307Z,98605
2017-12-12T06:16:16.334Z,98608
2017-12-12T06:17:16.478Z,98607
2017-12-12T06:18:16.636Z,98613
2017-12-12T06:19:16.632Z,98614
2017-12-12T06:20:16.740Z,98615
2017-12-12T06:21:17.666Z,98622
2017-12-12T06:22:17.849Z,98634
2017-12-12T06:23:17.925Z,98632
2017-12-12T06:24:17.931Z,98634
2017-12-12T06:25:17.043Z,98641
2017-12-12T06:26:17.886Z,98639
2017-12-12T06:27:17.058Z,98651
2017-12-12T06:28:16.968Z,98651
2017-12-12T06:29:17.150Z,98648
2017-12-12T06:30:18.229Z,98651
2017-12-12T06:31:18.299Z,98654
2017-12-12T06:32:18.297Z,98650
2017-12-12T06:33:18.726Z,98664
2017-12-12T06:34:17.343Z,98667
2017-12-12T06:35:17.536Z,98673
2017-12-12T06:36:18.500Z,98671
2017-12-12T06:37:17.573Z,98678
2017-12-12T06:38:18.422Z,98688
2017-12-12T06:39:18.580Z,98690
2017-12-12T06:40:17.547Z,98694
2017-12-12T06:41:18.611Z,98702
2017-12-12T06:42:18.618Z,98702
2017-12-12T06:43:17.691Z,98705
2017-12-12T06:44:17.729Z,98687
2017-12-12T06:45:18.860Z,98715
2017-12-12T06:46:18.900Z,98714
2017-12-12T06:47:17.889Z,98718
2017-12-12T06:48:17.974Z,98715
2017-12-12T06:49:18.998Z,98712
2017-12-12T06:50:19.019Z,98722
2017-12-12T06:51:19.052Z,98717
2017-12-12T06:52:19.129Z,98730
2017-12-12T06:53:19.277Z,98733
2017-12-12T06:54:19.164Z,98736
2017-12-12T06:55:19.290Z,98737
2017-12-12T06:56:18.279Z,98750
2017-12-12T06:57:19.249Z,98743
2017-12-12T06:58:18.489Z,98750
2017-12-12T06:59:18.495Z,98753
2017-12-12T07:00:18.666Z,98754
2017-12-12T07:01:19.636Z,98756
2017-12-12T07:02:18.821Z,98759
2017-12-12T07:03:18.910Z,98752
2017-12-12T07:04:19.834Z,98755
2017-12-12T07:05:18.925Z,98761
2017-12-12T07:06:18.907Z,98760
2017-12-12T07:07:20.001Z,98762
2017-12-12T07:08:20.034Z,98767
2017-12-12T07:09:19.103Z,98782
2017-12-12T07:10:19.137Z,98778
2017-12-12T07:11:19.200Z,98780
2017-12-12T07:12:20.116Z,98784
2017-12-12T07:13:19.235Z,98783
2017-12-12T07:14:20.269Z,98786
2017-12-12T07:15:20.211Z,98785
2017-12-12T07:16:19.434Z,98790
2017-12-12T07:17:20.278Z,98788
2017-12-12T07:18:20.411Z,98790
2017-12-12T07:19:19.836Z,98794
2017-12-12T07:20:20.497Z,98795
2017-12-12T07:21:20.489Z,98801
2017-12-12T07:22:20.518Z,98806
2017-12-12T07:23:19.677Z,98809
2017-12-12T07:24:19.783Z,98820
2017-12-12T07:25:20.701Z,98820
2017-12-12T07:26:19.810Z,98823
2017-12-12T07:27:19.898Z,98819
2017-12-12T07:28:19.990Z,98829
2017-12-12T07:29:21.053Z,98839
2017-12-12T07:30:21.011Z,98842
2017-12-12T07:31:21.107Z,98837
2017-12-12T07:32:20.181Z,98843
2017-12-12T07:33:20.291Z,98852
2017-12-12T07:34:20.429Z,98845
2017-12-12T07:35:21.114Z,98846
2017-12-12T07:36:20.222Z,98851
2017-12-12T07:37:20.252Z,98852
2017-12-12T07:38:20.460Z,98857
2017-12-12T07:39:20.399Z,98873
2017-12-12T07:40:20.553Z,98865
2017-12-12T07:41:21.538Z,98865
2017-12-12T07:42:20.680Z,98859
2017-12-12T07:43:20.599Z,98860
2017-12-12T07:44:21.770Z,98866
2017-12-12T07:45:23.195Z,98873
2017-12-12T07:46:21.952Z,98875
2017-12-12T07:47:22.628Z,98878
2017-12-12T07:48:21.923Z,98882
2017-12-12T07:49:21.994Z,98897
2017-12-12T07:50:21.868Z,98882
2017-12-12T07:51:20.970Z,98889
2017-12-12T07:52:22.034Z,98890
2017-12-12T07:53:21.159Z,98888
2017-12-12T07:54:21.302Z,98883
2017-12-12T07:55:21.346Z,98884
2017-12-12T07:56:21.428Z,98903
2017-12-12T07:57:21.515Z,98913
2017-12-12T07:58:22.423Z,98908
2017-12-12T07:59:21.522Z,98910
2017-12-12T08:00:22.639Z,98913
2017-12-12T08:01:23.428Z,98931
2017-12-12T08:02:22.721Z,98922
2017-12-12T08:03:21.826Z,98932
2017-12-12T08:04:22.815Z,98930
2017-12-12T08:05:22.938Z,98942
2017-12-12T08:06:21.992Z,98947
2017-12-12T08:07:23.045Z,98949
2017-12-12T08:08:22.053Z,98959
2017-12-12T08:09:23.223Z,98948
2017-12-12T08:10:23.312Z,98950
2017-12-12T08:11:22.406Z,98961
2017-12-12T08:12:23.350Z,98968
2017-12-12T08:13:25.047Z,98968
2017-12-12T08:14:26.177Z,98975
2017-12-12T08:15:23.182Z,98978
2017-12-12T08:16:23.621Z,98981
2017-12-12T08:17:22.729Z,98979
2017-12-12T08:18:24.040Z,98990
2017-12-12T08:19:25.244Z,98995
2017-12-12T08:20:24.297Z,98988
2017-12-12T08:21:23.896Z,98995
2017-12-12T08:22:23.257Z,98994
2017-12-12T08:23:23.930Z,99002
2017-12-12T08:24:22.938Z,98999
2017-12-12T08:25:23.799Z,98999
2017-12-12T08:26:24.449Z,99010
2017-12-12T08:27:23.330Z,99012
2017-12-12T08:28:24.194Z,99021
2017-12-12T08:29:24.489Z,99016
2017-12-12T08:30:24.364Z,99008
2017-12-12T08:31:24.271Z,99003
2017-12-12T08:32:23.567Z,99016
2017-12-12T08:33:23.834Z,99023
2017-12-12T08:34:24.402Z,99024
2017-12-12T08:35:24.541Z,99028
2017-12-12T08:36:23.509Z,99033
2017-12-12T08:37:24.588Z,99035
2017-12-12T08:38:23.688Z,99041
2017-12-12T08:39:23.836Z,99038
2017-12-12T08:40:23.866Z,99034
2017-12-12T08:41:25.144Z,99037
2017-12-12T08:42:24.797Z,99042
2017-12-12T08:43:23.905Z,99034
2017-12-12T08:44:24.330Z,99035
2017-12-12T08:45:24.893Z,99049
2017-12-12T08:46:23.979Z,99041
2017-12-12T08:47:25.138Z,99050
2017-12-12T08:48:25.073Z,99055
2017-12-12T08:49:24.094Z,99065
2017-12-12T08:50:25.158Z,99054
2017-12-12T08:51:24.158Z,99054
2017-12-12T08:52:24.407Z,99064
2017-12-12T08:53:25.292Z,99057
2017-12-12T08:54:24.443Z,99059
2017-12-12T08:55:24.543Z,99063
2017-12-12T08:56:25.510Z,99069
2017-12-12T08:57:24.708Z,99063
2017-12-12T08:58:24.680Z,99067
2017-12-12T08:59:24.672Z,99075
2017-12-12T09:00:25.793Z,99079
2017-12-12T09:01:25.904Z,99091
2017-12-12T09:02:25.868Z,99083
2017-12-12T09:03:24.977Z,99096
2017-12-12T09:04:25.923Z,99099
2017-12-12T09:05:25.094Z,99094
2017-12-12T09:06:24.989Z,99102
2017-12-12T09:07:25.076Z,99110
2017-12-12T09:08:26.336Z,99104
2017-12-12T09:09:26.123Z,99109
2017-12-12T09:10:26.117Z,99105
2017-12-12T09:11:26.223Z,99108
2017-12-12T09:12:26.437Z,99108
2017-12-12T09:13:26.422Z,99110
2017-12-12T09:14:25.480Z,99112
2017-12-12T09:15:26.428Z,99110
2017-12-12T09:16:25.602Z,99108
2017-12-12T09:17:25.601Z,99109
2017-12-12T09:18:26.590Z,99115
2017-12-12T09:19:25.969Z,99124
2017-12-12T09:20:25.784Z,99122
2017-12-12T09:21:26.949Z,99120
2017-12-12T09:22:27.014Z,99136
2017-12-12T09:23:26.039Z,99146
2017-12-12T09:24:27.672Z,99128
2017-12-12T09:25:26.184Z,99138
2017-12-12T09:26:26.268Z,99142
2017-12-12T09:27:27.229Z,99148
2017-12-12T09:28:26.367Z,99152
2017-12-12T09:29:27.511Z,99151
2017-12-12T09:30:26.507Z,99149
2017-12-12T09:31:26.578Z,99148
2017-12-12T09:32:26.783Z,99146
2017-12-12T09:33:27.844Z,99153
2017-12-12T09:34:27.737Z,99142
2017-12-12T09:35:26.860Z,99148
2017-12-12T09:36:26.996Z,99160
2017-12-12T09:37:28.133Z,99150
2017-12-12T09:38:26.987Z,99168
2017-12-12T09:39:27.140Z,99171
2017-12-12T09:40:27.086Z,99174
2017-12-12T09:41:27.099Z,99171
2017-12-12T09:42:27.474Z,99169
2017-12-12T09:43:28.462Z,99166
2017-12-12T09:44:28.792Z,99175
2017-12-12T09:45:28.681Z,99174
2017-12-12T09:46:28.295Z,99178
2017-12-12T09:47:27.650Z,99174
2017-12-12T09:48:27.383Z,99183
2017-12-12T09:49:27.567Z,99188
2017-12-12T09:50:29.178Z,99197
2017-12-12T09:51:27.613Z,99195
2017-12-12T09:52:28.654Z,99200
2017-12-12T09:53:27.646Z,99206
2017-12-12T09:54:28.803Z,99206
2017-12-12T09:55:29.304Z,99215
2017-12-12T09:56:27.656Z,99219
2017-12-12T09:57:27.852Z,99217
2017-12-12T09:58:27.968Z,99219
2017-12-12T09:59:29.149Z,99220
2017-12-12T10:00:29.151Z,99226
2017-12-12T10:01:28.341Z,99229
2017-12-12T10:02:29.549Z,99231
2017-12-12T10:03:28.264Z,99234
2017-12-12T10:04:29.439Z,99233
2017-12-12T10:05:29.195Z,99237
2017-12-12T10:06:29.314Z,99232
2017-12-12T10:07:29.757Z,99240
2017-12-12T10:08:29.235Z,99234
2017-12-12T10:09:28.374Z,99234
2017-12-12T10:10:28.349Z,99231
2017-12-12T10:11:28.426Z,99232
2017-12-12T10:12:28.697Z,99244
2017-12-12T10:13:28.873Z,99238
2017-12-12T10:14:29.637Z,99241
2017-12-12T10:15:28.868Z,99251
2017-12-12T10:16:30.640Z,99259
2017-12-12T10:17:28.800Z,99256
2017-12-12T10:18:31.786Z,99278
2017-12-12T10:19:29.107Z,99276
2017-12-12T10:20:29.309Z,99276
2017-12-12T10:21:30.076Z,99280
2017-12-12T10:22:28.984Z,99276
2017-12-12T10:23:29.156Z,99273
2017-12-12T10:24:30.035Z,99270
2017-12-12T10:25:29.176Z,99280
2017-12-12T10:26:29.301Z,99282
2017-12-12T10:27:32.019Z,99284
2017-12-12T10:28:29.618Z,99286
2017-12-12T10:29:32.426Z,99284
2017-12-12T10:30:29.862Z,99294
2017-12-12T10:31:29.642Z,99288
2017-12-12T10:32:30.103Z,99291
2017-12-12T10:33:30.270Z,99298
2017-12-12T10:34:30.908Z,99295
2017-12-12T10:35:30.847Z,99297
2017-12-12T10:36:29.984Z,99297
2017-12-12T10:37:29.936Z,99297
2017-12-12T10:38:31.118Z,99304
2017-12-12T10:39:30.723Z,99310
2017-12-12T10:40:31.365Z,99307
2017-12-12T10:41:30.169Z,99315
2017-12-12T10:42:30.367Z,99312
2017-12-12T10:43:30.235Z,99298
2017-12-12T10:44:31.366Z,99314
2017-12-12T10:45:30.384Z,99305
2017-12-12T10:46:31.434Z,99316
2017-12-12T10:47:31.455Z,99312
2017-12-12T10:48:30.455Z,99319
2017-12-12T10:49:30.640Z,99317
2017-12-12T10:50:31.743Z,99311
2017-12-12T10:51:31.769Z,99323
2017-12-12T10:52:31.927Z,99325
2017-12-12T10:53:31.888Z,99302
2017-12-12T10:54:32.306Z,99329
2017-12-12T10:55:31.838Z,99317
2017-12-12T10:56:32.107Z,99341
2017-12-12T10:57:31.914Z,99332
2017-12-12T10:58:31.646Z,99327
2017-12-12T10:59:33.819Z,99328
2017-12-12T11:00:32.874Z,99340
2017-12-12T11:01:33.086Z,99341
2017-12-12T11:02:34.248Z,99344
2017-12-12T11:03:33.230Z,99345
2017-12-12T11:04:34.197Z,99352
2017-12-12T11:05:33.276Z,99358
2017-12-12T11:06:32.040Z,99349
2017-12-12T11:07:32.256Z,99368
2017-12-12T11:08:33.235Z,99363
2017-12-12T11:09:31.495Z,99362
2017-12-12T11:10:31.728Z,99356
2017-12-12T11:11:33.002Z,99366
2017-12-12T11:12:31.897Z,99367
2017-12-12T11:13:31.968Z,99364
2017-12-12T11:14:32.833Z,99367
2017-12-12T11:15:35.080Z,99366
2017-12-12T11:16:32.457Z,99364
2017-12-12T11:17:33.264Z,99367
2017-12-12T11:18:33.217Z,99369
2017-12-12T11:19:33.478Z,99377
2017-12-12T11:20:33.369Z,99369
2017-12-12T11:21:33.872Z,99380
2017-12-12T11:22:33.304Z,99384
2017-12-12T11:23:33.319Z,99384
2017-12-12T11:24:33.215Z,99384
2017-12-12T11:25:32.490Z,99377
2017-12-12T11:26:33.752Z,99381
2017-12-12T11:27:32.529Z,99384
2017-12-12T11:28:33.829Z,99377
2017-12-12T11:29:33.358Z,99387
2017-12-12T11:30:35.027Z,99382
2017-12-12T11:31:34.239Z,99392
2017-12-12T11:32:33.934Z,99399
2017-12-12T11:33:32.922Z,99403
2017-12-12T11:34:33.180Z,99398
2017-12-12T11:35:33.160Z,99400
2017-12-12T11:36:36.166Z,99394
2017-12-12T11:37:33.738Z,99407
2017-12-12T11:38:33.724Z,99409
2017-12-12T11:39:34.422Z,99407
2017-12-12T11:40:34.419Z,99395
2017-12-12T11:41:33.455Z,99409
2017-12-12T11:42:34.138Z,99411
2017-12-12T11:43:33.597Z,99412
2017-12-12T11:44:34.461Z,99415
2017-12-12T11:45:33.638Z,99417
2017-12-12T11:46:33.611Z,99415
2017-12-12T11:47:33.730Z,99416
2017-12-12T11:48:34.846Z,99411
2017-12-12T11:49:33.804Z,99420
2017-12-12T11:50:33.899Z,99420
2017-12-12T11:51:33.784Z,99418
2017-12-12T11:52:33.906Z,99427
2017-12-12T11:53:34.302Z,99427
2017-12-12T11:54:35.039Z,99434
2017-12-12T11:55:34.189Z,99422
2017-12-12T11:56:35.230Z,99433
2017-12-12T11:57:35.133Z,99424
2017-12-12T11:58:34.455Z,99435
2017-12-12T11:59:34.222Z,99439
2017-12-12T12:00:34.302Z,99437
2017-12-12T12:01:36.266Z,99437
2017-12-12T12:02:35.221Z,99431
2017-12-12T12:03:35.431Z,99431
2017-12-12T12:04:35.362Z,99436
2017-12-12T12:05:34.438Z,99435
2017-12-12T12:06:34.605Z,99439
2017-12-12T12:07:34.616Z,99443
2017-12-12T12:08:34.694Z,99441
2017-12-12T12:09:35.640Z,99439
2017-12-12T12:10:34.728Z,99449
2017-12-12T12:11:36.547Z,99442
2017-12-12T12:12:36.812Z,99447
2017-12-12T12:13:35.879Z,99449
2017-12-12T12:14:36.222Z,99444
2017-12-12T12:15:35.060Z,99452
2017-12-12T12:16:35.134Z,99454
2017-12-12T12:17:36.835Z,99437
2017-12-12T12:18:35.322Z,99448
2017-12-12T12:19:36.111Z,99454
2017-12-12T12:20:36.269Z,99452
2017-12-12T12:21:35.541Z,99450
2017-12-12T12:22:36.573Z,99458
2017-12-12T12:23:36.287Z,99454
2017-12-12T12:24:36.653Z,99464
2017-12-12T12:25:36.578Z,99469
2017-12-12T12:26:35.442Z,99474
2017-12-12T12:27:35.423Z,99475
2017-12-12T12:28:36.614Z,99482
2017-12-12T12:29:35.580Z,99483
2017-12-12T12:30:36.437Z,99487
2017-12-12T12:31:35.748Z,99486
2017-12-12T12:32:36.613Z,99487
2017-12-12T12:33:35.776Z,99490
2017-12-12T12:34:35.977Z,99489
2017-12-12T12:35:37.567Z,99486
2017-12-12T12:36:37.271Z,99432
2017-12-12T12:37:37.388Z,99503
2017-12-12T12:38:37.082Z,99445
2017-12-12T12:39:37.667Z,99505
2017-12-12T12:40:37.128Z,99504
2017-12-12T12:41:36.195Z,99501
2017-12-12T12:42:36.411Z,99497
2017-12-12T12:43:37.347Z,99499
2017-12-12T12:44:37.358Z,99496
2017-12-12T12:45:37.450Z,99516
2017-12-12T12:46:37.434Z,99508
2017-12-12T12:47:36.494Z,99510
2017-12-12T12:48:36.596Z,99512
2017-12-12T12:49:36.690Z,99503
2017-12-12T12:50:36.574Z,99503
2017-12-12T12:51:37.638Z,99507
2017-12-12T12:52:36.976Z,99491
2017-12-12T12:53:38.122Z,99509